createdAt,value
2018-07-24T00:00:27.601Z,75.90
2018-07-24T00:03:52.095Z,76.40
2018-07-24T00:07:16.558Z,76.50
2018-07-24T00:10:41.027Z,77.10
2018-07-24T00:14:05.473Z,77.30
2018-07-24T00:17:29.983Z,77.50
2018-07-24T00:20:54.491Z,78.10
2018-07-24T00:24:18.924Z,78.20
2018-07-24T00:27:43.374Z,78.00
2018-07-24T00:31:08.753Z,78.20
2018-07-24T00:34:33.294Z,78.60
2018-07-24T00:37:57.775Z,78.60
2018-07-24T00:41:22.235Z,78.80
2018-07-24T00:44:46.706Z,78.70
2018-07-24T00:48:11.200Z,79.10
2018-07-24T00:51:35.634Z,79.10
2018-07-24T00:55:00.116Z,79.30
2018-07-24T00:58:24.574Z,79.10
2018-07-24T01:01:48.991Z,79.40
2018-07-24T01:05:13.418Z,79.60
2018-07-24T01:08:38.925Z,80.00
2018-07-24T01:12:03.328Z,80.10
2018-07-24T01:15:27.795Z,79.80
2018-07-24T01:18:52.283Z,79.90
2018-07-24T01:22:16.779Z,79.90
2018-07-24T01:25:41.223Z,79.90
2018-07-24T01:29:05.687Z,79.80
2018-07-24T01:32:30.149Z,79.70
2018-07-24T01:35:54.637Z,79.30
2018-07-24T01:39:19.139Z,79.20
2018-07-24T01:42:43.616Z,79.60
2018-07-24T01:46:08.078Z,78.80
2018-07-24T01:49:32.572Z,80.00
2018-07-24T01:56:21.197Z,80.10
2018-07-24T01:59:45.634Z,80.50
2018-07-24T02:03:10.056Z,80.70
2018-07-24T02:06:34.467Z,80.90
2018-07-24T02:09:58.914Z,81.40
2018-07-24T02:13:23.370Z,81.80
2018-07-24T02:16:47.805Z,81.60
2018-07-24T02:20:12.293Z,82.00
2018-07-24T02:23:36.757Z,82.30
2018-07-24T02:27:01.210Z,82.80
2018-07-24T02:30:25.667Z,83.30
2018-07-24T02:33:50.123Z,83.70
2018-07-24T02:37:14.586Z,84.00
2018-07-24T02:40:39.024Z,84.20
2018-07-24T02:44:03.487Z,84.10
2018-07-24T02:47:27.938Z,84.10
2018-07-24T02:50:52.409Z,84.00
2018-07-24T02:54:16.899Z,83.50
2018-07-24T02:57:41.348Z,83.30
2018-07-24T03:01:05.784Z,83.50
2018-07-24T03:04:30.223Z,83.70
2018-07-24T03:07:54.684Z,84.10
2018-07-24T03:11:19.161Z,84.40
2018-07-24T03:14:43.686Z,84.40
2018-07-24T03:18:08.134Z,84.50
2018-07-24T03:21:32.663Z,84.60
2018-07-24T03:24:57.155Z,84.70
2018-07-24T03:28:21.651Z,84.80
2018-07-24T03:31:46.091Z,85.10
2018-07-24T03:35:10.586Z,85.00
2018-07-24T03:38:35.091Z,85.00
2018-07-24T03:41:59.511Z,85.40
2018-07-24T03:45:23.963Z,85.40
2018-07-24T03:48:48.435Z,85.10
2018-07-24T03:52:12.986Z,85.00
2018-07-24T03:55:37.466Z,86.00
2018-07-24T03:59:01.940Z,85.60
2018-07-24T04:02:26.492Z,85.50
2018-07-24T04:05:50.854Z,85.40
2018-07-24T04:09:15.281Z,85.50
2018-07-24T04:12:39.713Z,85.30
2018-07-24T04:16:04.347Z,85.70
2018-07-24T04:19:28.798Z,85.50
2018-07-24T04:22:53.305Z,85.70
2018-07-24T04:26:17.922Z,85.60
2018-07-24T04:29:42.360Z,86.00
2018-07-24T04:33:06.862Z,85.80
2018-07-24T04:36:31.310Z,86.00
2018-07-24T04:39:55.776Z,85.70
2018-07-24T04:43:20.171Z,85.70
2018-07-24T04:46:44.610Z,85.40
2018-07-24T04:50:09.042Z,85.60
2018-07-24T04:53:33.505Z,85.60
2018-07-24T04:56:57.999Z,85.70
2018-07-24T05:00:22.422Z,85.60
2018-07-24T05:03:46.893Z,85.60
2018-07-24T05:07:11.335Z,85.40
2018-07-24T05:10:35.849Z,85.20
2018-07-24T05:14:00.729Z,84.80
2018-07-24T05:17:25.172Z,84.50
2018-07-24T05:20:49.650Z,84.10
2018-07-24T05:24:14.094Z,83.70
2018-07-24T05:27:38.532Z,83.50
2018-07-24T05:31:02.990Z,83.20
2018-07-24T05:34:27.458Z,82.70
2018-07-24T05:37:51.890Z,80.90
2018-07-24T05:41:16.353Z,80.70
2018-07-24T05:44:40.780Z,80.20
2018-07-24T05:48:05.232Z,79.00
2018-07-24T05:51:29.693Z,78.60
2018-07-24T05:54:54.143Z,78.10
2018-07-24T05:58:18.598Z,77.40
2018-07-24T06:01:43.072Z,76.00
2018-07-24T06:05:07.694Z,74.90
2018-07-24T06:08:32.143Z,74.70
2018-07-24T06:11:56.629Z,74.40
2018-07-24T06:15:21.071Z,73.50
2018-07-24T06:18:45.502Z,72.40
2018-07-24T06:22:09.981Z,72.60
2018-07-24T06:25:34.438Z,71.80
2018-07-24T06:28:58.899Z,71.30
2018-07-24T06:32:23.324Z,71.30
2018-07-24T06:35:47.786Z,70.20
2018-07-24T06:39:13.539Z,69.60
2018-07-24T06:46:02.110Z,69.10
2018-07-24T06:49:26.545Z,68.90
2018-07-24T06:52:50.994Z,67.90
2018-07-24T06:56:15.441Z,67.30
2018-07-24T06:59:39.898Z,68.50
2018-07-24T07:03:04.348Z,67.00
2018-07-24T07:06:28.799Z,66.00
2018-07-24T07:09:53.249Z,65.70
2018-07-24T07:13:17.684Z,65.40
2018-07-24T07:16:42.167Z,65.20
2018-07-24T07:20:06.703Z,64.70
2018-07-24T07:23:31.538Z,64.00
2018-07-24T07:26:55.957Z,63.70
2018-07-24T07:30:20.428Z,63.70
2018-07-24T07:33:44.886Z,62.20
2018-07-24T07:37:09.348Z,62.10
2018-07-24T07:40:33.819Z,60.60
2018-07-24T07:43:58.340Z,60.70
2018-07-24T07:47:22.840Z,60.80
2018-07-24T07:50:47.295Z,60.40
2018-07-24T07:54:11.769Z,59.80
2018-07-24T07:57:36.229Z,60.30
2018-07-24T08:01:00.764Z,58.30
2018-07-24T08:04:25.299Z,58.60
2018-07-24T08:07:49.711Z,57.60
2018-07-24T08:11:14.166Z,57.00
2018-07-24T08:14:38.625Z,57.50
2018-07-24T08:18:03.097Z,55.70
2018-07-24T08:21:27.603Z,55.10
2018-07-24T08:24:52.241Z,54.90
2018-07-24T08:28:16.752Z,53.80
2018-07-24T08:31:41.141Z,53.10
2018-07-24T08:35:05.617Z,52.40
2018-07-24T08:38:30.137Z,52.20
2018-07-24T08:41:54.643Z,51.70
2018-07-24T08:45:19.086Z,49.60
2018-07-24T08:48:43.525Z,49.00
2018-07-24T08:52:08.049Z,50.70
2018-07-24T08:55:32.921Z,50.40
2018-07-24T08:58:56.987Z,49.50
2018-07-24T09:02:21.473Z,48.60
2018-07-24T09:05:45.924Z,50.40
2018-07-24T09:09:11.942Z,47.50
2018-07-24T09:12:36.478Z,45.60
2018-07-24T09:16:00.908Z,46.30
2018-07-24T09:19:25.372Z,46.10
2018-07-24T09:22:49.855Z,44.80
2018-07-24T09:26:14.359Z,43.20
2018-07-24T09:29:38.797Z,43.90
2018-07-24T09:33:03.214Z,42.20
2018-07-24T09:36:27.699Z,42.20
2018-07-24T09:39:52.186Z,42.80
2018-07-24T09:43:16.646Z,41.50
2018-07-24T09:46:41.155Z,41.20
2018-07-24T09:50:05.862Z,41.00
2018-07-24T09:53:30.351Z,40.00
2018-07-24T09:56:54.838Z,40.00
2018-07-24T10:00:23.335Z,42.10
2018-07-24T10:03:47.811Z,37.80
2018-07-24T10:07:12.257Z,37.50
2018-07-24T10:10:36.699Z,39.20
2018-07-24T10:14:01.149Z,36.00
2018-07-24T10:17:25.628Z,36.00
2018-07-24T10:20:50.129Z,35.20
2018-07-24T10:24:14.579Z,34.80
2018-07-24T10:27:39.013Z,36.60
2018-07-24T10:31:11.399Z,35.60
2018-07-24T10:34:37.321Z,31.90
2018-07-24T10:38:01.753Z,30.80
2018-07-24T10:41:26.185Z,30.40
2018-07-24T10:44:50.644Z,29.80
2018-07-24T10:48:15.071Z,29.80
2018-07-24T10:51:39.564Z,28.90
2018-07-24T10:55:03.996Z,28.30
2018-07-24T10:58:28.455Z,27.40
2018-07-24T11:01:52.942Z,27.50
2018-07-24T11:05:17.378Z,27.90
2018-07-24T11:08:41.817Z,26.70
2018-07-24T11:12:06.276Z,25.20
2018-07-24T11:15:30.796Z,25.20
2018-07-24T11:18:55.202Z,25.20
2018-07-24T11:22:19.705Z,24.70
2018-07-24T11:25:44.311Z,24.50
2018-07-24T11:29:08.747Z,24.30
2018-07-24T11:32:33.282Z,25.30
2018-07-24T11:35:57.928Z,24.90
2018-07-24T11:39:22.296Z,24.80
2018-07-24T11:42:46.718Z,24.00
2018-07-24T11:46:11.174Z,24.90
2018-07-24T11:49:35.615Z,23.40
2018-07-24T11:53:00.056Z,23.00
2018-07-24T11:56:24.501Z,23.90
2018-07-24T11:59:48.984Z,23.10
2018-07-24T12:03:13.383Z,22.60
2018-07-24T12:06:37.806Z,22.40
2018-07-24T12:10:02.265Z,22.80
2018-07-24T12:13:26.740Z,22.30
2018-07-24T12:16:51.212Z,23.00
2018-07-24T12:20:15.802Z,22.90
2018-07-24T12:23:40.421Z,23.10
2018-07-24T12:27:05.375Z,23.20
2018-07-24T12:30:29.862Z,22.20
2018-07-24T12:33:55.175Z,21.30
2018-07-24T12:37:19.820Z,22.00
2018-07-24T12:40:44.483Z,22.60
2018-07-24T12:44:09.044Z,22.40
2018-07-24T12:47:33.651Z,21.30
2018-07-24T12:50:58.291Z,21.20
2018-07-24T12:54:22.869Z,20.90
2018-07-24T12:57:47.486Z,21.90
2018-07-24T13:01:12.049Z,20.70
2018-07-24T13:04:36.624Z,19.60
2018-07-24T13:08:01.246Z,19.60
2018-07-24T13:11:25.843Z,19.90
2018-07-24T13:14:50.423Z,19.50
2018-07-24T13:18:15.020Z,18.90
2018-07-24T13:21:39.579Z,19.20
2018-07-24T13:25:04.267Z,19.20
2018-07-24T13:28:28.916Z,19.50
2018-07-24T13:31:53.547Z,19.40
2018-07-24T13:35:18.001Z,19.10
2018-07-24T13:38:42.625Z,19.20
2018-07-24T13:42:07.283Z,20.00
2018-07-24T13:45:32.029Z,21.50
2018-07-24T13:48:56.706Z,18.10
2018-07-24T13:52:21.306Z,18.40
2018-07-24T13:55:45.863Z,19.00
2018-07-24T13:59:10.399Z,19.30
2018-07-24T14:02:34.898Z,17.60
2018-07-24T14:05:59.443Z,17.10
2018-07-24T14:09:23.945Z,17.70
2018-07-24T14:12:48.489Z,16.80
2018-07-24T14:16:13.055Z,17.20
2018-07-24T14:19:37.651Z,17.40
2018-07-24T14:23:02.220Z,18.20
2018-07-24T14:26:26.807Z,18.20
2018-07-24T14:29:51.422Z,18.10
2018-07-24T14:33:22.217Z,15.90
2018-07-24T14:36:46.774Z,16.50
2018-07-24T14:40:11.348Z,16.90
2018-07-24T14:43:35.868Z,16.30
2018-07-24T14:47:00.404Z,16.10
2018-07-24T14:50:24.885Z,16.00
2018-07-24T14:53:49.317Z,16.90
2018-07-24T14:57:13.754Z,15.10
2018-07-24T15:00:38.237Z,14.80
2018-07-24T15:04:02.764Z,15.60
2018-07-24T15:07:27.275Z,15.30
2018-07-24T15:10:51.785Z,14.60
2018-07-24T15:14:16.208Z,13.70
2018-07-24T15:17:40.640Z,14.40
2018-07-24T15:21:05.042Z,14.10
2018-07-24T15:24:29.474Z,14.40
2018-07-24T15:27:54.186Z,14.10
2018-07-24T15:31:18.709Z,13.20
2018-07-24T15:34:44.209Z,13.40
2018-07-24T15:38:10.737Z,15.10
2018-07-24T15:41:38.106Z,14.60
2018-07-24T15:45:02.576Z,14.00
2018-07-24T15:48:26.993Z,14.80
2018-07-24T15:51:51.466Z,13.40
2018-07-24T15:55:28.206Z,12.90
2018-07-24T15:58:57.670Z,12.90
2018-07-24T16:02:22.302Z,13.70
2018-07-24T16:05:46.936Z,14.20
2018-07-24T16:09:13.064Z,12.60
2018-07-24T16:12:37.613Z,12.50
2018-07-24T16:16:02.225Z,13.00
2018-07-24T16:19:26.871Z,13.60
2018-07-24T16:22:51.449Z,13.60
2018-07-24T16:26:16.006Z,14.00
2018-07-24T16:29:40.465Z,14.10
2018-07-24T16:33:05.036Z,16.60
2018-07-24T16:36:32.662Z,17.50
2018-07-24T16:39:57.187Z,18.00
2018-07-24T16:43:21.702Z,19.90
2018-07-24T16:46:46.212Z,16.80
2018-07-24T16:50:10.824Z,16.90
2018-07-24T16:53:35.402Z,18.00
2018-07-24T16:57:00.002Z,17.00
2018-07-24T17:00:24.732Z,18.10
2018-07-24T17:03:49.213Z,16.50
2018-07-24T17:07:13.716Z,18.20
2018-07-24T17:10:38.295Z,20.30
2018-07-24T17:14:02.962Z,23.00
2018-07-24T17:17:27.321Z,25.00
2018-07-24T17:20:51.816Z,26.30
2018-07-24T17:24:16.324Z,26.40
2018-07-24T17:27:40.869Z,25.40
2018-07-24T17:31:05.424Z,26.30
2018-07-24T17:37:54.223Z,26.30
2018-07-24T17:41:18.775Z,28.30
2018-07-24T17:44:43.230Z,28.60
2018-07-24T17:48:08.150Z,27.90
2018-07-24T17:51:32.681Z,30.00
2018-07-24T17:54:57.209Z,29.10
2018-07-24T18:01:45.957Z,29.60
2018-07-24T18:05:10.380Z,29.20
2018-07-24T18:08:34.890Z,27.70
2018-07-24T18:11:59.539Z,28.30
2018-07-24T18:15:24.025Z,29.80
2018-07-24T18:18:48.502Z,32.70
2018-07-24T18:22:13.064Z,30.60
2018-07-24T18:25:37.690Z,32.90
2018-07-24T18:29:02.214Z,30.70
2018-07-24T18:32:26.887Z,32.40
2018-07-24T18:35:51.401Z,32.20
2018-07-24T18:39:15.840Z,32.80
2018-07-24T18:42:40.342Z,34.70
2018-07-24T18:49:29.023Z,34.50
2018-07-24T18:52:53.499Z,35.00
2018-07-24T18:56:17.927Z,34.90
2018-07-24T18:59:42.392Z,37.80
2018-07-24T19:03:06.868Z,40.30
2018-07-24T19:06:31.291Z,40.00
2018-07-24T19:09:55.699Z,42.30
2018-07-24T19:13:20.153Z,43.40
2018-07-24T19:16:44.619Z,43.20
2018-07-24T19:20:09.077Z,44.00
2018-07-24T19:23:33.556Z,44.20
2018-07-24T19:26:58.007Z,43.70
2018-07-24T19:30:22.428Z,44.40
2018-07-24T19:33:46.853Z,44.20
2018-07-24T19:37:11.298Z,44.80
2018-07-24T19:40:35.746Z,44.90
2018-07-24T19:44:00.312Z,45.50
2018-07-24T19:47:24.657Z,46.80
2018-07-24T19:50:49.107Z,46.20
2018-07-24T19:54:13.550Z,47.00
2018-07-24T19:57:38.032Z,46.30
2018-07-24T20:01:02.511Z,47.40
2018-07-24T20:04:26.975Z,47.90
2018-07-24T20:07:51.375Z,47.70
2018-07-24T20:11:16.758Z,48.10
2018-07-24T20:14:41.168Z,48.10
2018-07-24T20:18:05.612Z,48.50
2018-07-24T20:21:30.033Z,48.50
2018-07-24T20:24:55.975Z,49.20
2018-07-24T20:28:20.457Z,48.70
2018-07-24T20:31:44.872Z,49.00
2018-07-24T20:35:09.368Z,49.40
2018-07-24T20:38:33.758Z,50.70
2018-07-24T20:41:58.189Z,52.10
2018-07-24T20:45:22.975Z,53.50
2018-07-24T20:48:47.404Z,53.50
2018-07-24T20:52:11.846Z,54.40
2018-07-24T20:55:36.308Z,53.40
2018-07-24T20:59:00.756Z,52.90
2018-07-24T21:02:25.213Z,52.70
2018-07-24T21:05:49.677Z,53.10
2018-07-24T21:09:14.377Z,54.30
2018-07-24T21:12:38.795Z,53.80
2018-07-24T21:16:03.303Z,52.60
2018-07-24T21:19:27.799Z,53.20
2018-07-24T21:22:52.458Z,53.20
2018-07-24T21:26:16.911Z,53.50
2018-07-24T21:29:41.377Z,54.70
2018-07-24T21:33:06.089Z,54.70
2018-07-24T21:36:30.710Z,54.30
2018-07-24T21:39:55.155Z,55.00
2018-07-24T21:43:19.610Z,55.20
2018-07-24T21:46:44.084Z,55.30
2018-07-24T21:50:08.609Z,55.80
2018-07-24T21:53:33.177Z,55.80
2018-07-24T21:56:57.710Z,56.50
2018-07-24T22:00:22.352Z,56.40
2018-07-24T22:03:46.775Z,57.50
2018-07-24T22:07:11.275Z,56.90
2018-07-24T22:10:35.756Z,57.40
2018-07-24T22:14:00.302Z,57.80
2018-07-24T22:17:24.811Z,58.00
2018-07-24T22:20:49.395Z,58.70
2018-07-24T22:24:14.024Z,58.90
2018-07-24T22:27:38.569Z,59.20
2018-07-24T22:31:03.174Z,59.30
2018-07-24T22:34:27.664Z,59.70
2018-07-24T22:41:16.545Z,59.80
2018-07-24T22:44:41.119Z,59.90
2018-07-24T22:48:05.692Z,60.70
2018-07-24T22:51:30.340Z,60.10
2018-07-24T22:54:54.870Z,60.70
2018-07-24T22:58:19.431Z,60.90
2018-07-24T23:01:43.964Z,61.10
2018-07-24T23:05:08.570Z,61.60
2018-07-24T23:08:33.112Z,61.90
2018-07-24T23:11:57.601Z,61.90
2018-07-24T23:15:22.229Z,62.60
2018-07-24T23:18:46.787Z,63.10
2018-07-24T23:22:11.418Z,62.60
2018-07-24T23:25:35.983Z,63.10
2018-07-24T23:29:00.578Z,63.40
2018-07-24T23:32:25.193Z,63.50
2018-07-24T23:35:49.782Z,63.50
2018-07-24T23:39:14.285Z,64.10
2018-07-24T23:42:39.278Z,64.20
2018-07-24T23:46:03.907Z,64.90
2018-07-24T23:49:28.741Z,64.70
2018-07-24T23:52:53.623Z,65.30
2018-07-24T23:56:18.765Z,65.40
2018-07-24T23:59:43.945Z,65.80
